sensor_id;sensor_type;location;lat;lon;timestamp;pressure;altitude;pressure_sealevel;temperature;humidity
29907;BME280;16776;50.958;10.994;2023-06-14T00:02:14;98426.25;;;15.86;76.28
29907;BME280;16776;50.958;10.994;2023-06-14T00:04:41;98422.03;;;15.83;76.23
29907;BME280;16776;50.958;10.994;2023-06-14T00:07:09;98421.19;;;15.83;76.42
29907;BME280;16776;50.958;10.994;2023-06-14T00:09:39;98419.75;;;15.77;76.44
29907;BME280;16776;50.958;10.994;2023-06-14T00:12:06;98418.16;;;15.74;76.66
29907;BME280;16776;50.958;10.994;2023-06-14T00:14:33;98415.78;;;15.70;76.34
29907;BME280;16776;50.958;10.994;2023-06-14T00:17:00;98420.31;;;15.66;76.70
29907;BME280;16776;50.958;10.994;2023-06-14T00:19:27;98415.25;;;15.63;76.72
29907;BME280;16776;50.958;10.994;2023-06-14T00:21:55;98418.03;;;15.60;76.83
29907;BME280;16776;50.958;10.994;2023-06-14T00:24:24;98423.28;;;15.59;76.71
29907;BME280;16776;50.958;10.994;2023-06-14T00:26:50;98410.56;;;15.54;76.93
29907;BME280;16776;50.958;10.994;2023-06-14T00:29:17;98412.38;;;15.52;76.82
29907;BME280;16776;50.958;10.994;2023-06-14T00:31:46;98419.56;;;15.47;76.77
29907;BME280;16776;50.958;10.994;2023-06-14T00:34:16;98422.28;;;15.44;77.02
29907;BME280;16776;50.958;10.994;2023-06-14T00:36:42;98425.13;;;15.39;77.02
29907;BME280;16776;50.958;10.994;2023-06-14T00:39:09;98425.25;;;15.36;77.25
29907;BME280;16776;50.958;10.994;2023-06-14T00:41:37;98416.63;;;15.36;77.04
29907;BME280;16776;50.958;10.994;2023-06-14T00:44:04;98414.25;;;15.31;77.30
29907;BME280;16776;50.958;10.994;2023-06-14T00:46:32;98414.41;;;15.28;77.50
29907;BME280;16776;50.958;10.994;2023-06-14T00:49:00;98407.53;;;15.27;77.48
29907;BME280;16776;50.958;10.994;2023-06-14T00:51:27;98405.25;;;15.21;77.59
29907;BME280;16776;50.958;10.994;2023-06-14T00:53:54;98416.59;;;15.19;77.62
29907;BME280;16776;50.958;10.994;2023-06-14T00:56:21;98414.19;;;15.16;77.47
29907;BME280;16776;50.958;10.994;2023-06-14T00:58:50;98415.09;;;15.15;77.55
29907;BME280;16776;50.958;10.994;2023-06-14T01:01:18;98415.44;;;15.07;77.74
29907;BME280;16776;50.958;10.994;2023-06-14T01:03:44;98413.09;;;15.02;77.71
29907;BME280;16776;50.958;10.994;2023-06-14T01:06:19;98412.78;;;15.09;77.78
29907;BME280;16776;50.958;10.994;2023-06-14T01:09:00;98409.66;;;15.02;77.59
29907;BME280;16776;50.958;10.994;2023-06-14T01:11:36;98413.38;;;14.96;78.32
29907;BME280;16776;50.958;10.994;2023-06-14T01:14:05;98411.91;;;14.91;78.05
29907;BME280;16776;50.958;10.994;2023-06-14T01:16:33;98408.78;;;14.84;77.93
29907;BME280;16776;50.958;10.994;2023-06-14T01:19:03;98411.38;;;14.84;78.07
29907;BME280;16776;50.958;10.994;2023-06-14T01:21:30;98416.00;;;14.78;78.19
29907;BME280;16776;50.958;10.994;2023-06-14T01:24:03;98414.47;;;14.74;78.33
29907;BME280;16776;50.958;10.994;2023-06-14T01:26:30;98413.84;;;14.69;78.27
29907;BME280;16776;50.958;10.994;2023-06-14T01:28:57;98413.22;;;14.64;78.35
29907;BME280;16776;50.958;10.994;2023-06-14T01:31:24;98421.97;;;14.61;78.27
29907;BME280;16776;50.958;10.994;2023-06-14T01:33:54;98416.94;;;14.58;78.47
29907;BME280;16776;50.958;10.994;2023-06-14T01:36:25;98417.91;;;14.55;78.52
29907;BME280;16776;50.958;10.994;2023-06-14T01:38:54;98414.75;;;14.49;78.50
29907;BME280;16776;50.958;10.994;2023-06-14T01:41:23;98414.81;;;14.47;78.64
29907;BME280;16776;50.958;10.994;2023-06-14T01:43:51;98425.44;;;14.41;78.76
29907;BME280;16776;50.958;10.994;2023-06-14T01:46:22;98427.41;;;14.36;78.82
29907;BME280;16776;50.958;10.994;2023-06-14T01:48:49;98431.91;;;14.33;78.98
29907;BME280;16776;50.958;10.994;2023-06-14T01:51:16;98429.47;;;14.28;78.99
29907;BME280;16776;50.958;10.994;2023-06-14T01:53:42;98423.63;;;14.25;78.77
29907;BME280;16776;50.958;10.994;2023-06-14T01:56:09;98429.00;;;14.20;79.02
29907;BME280;16776;50.958;10.994;2023-06-14T01:58:37;98431.66;;;14.18;78.87
29907;BME280;16776;50.958;10.994;2023-06-14T02:01:04;98431.84;;;14.14;79.14
29907;BME280;16776;50.958;10.994;2023-06-14T02:03:32;98426.94;;;14.08;79.13
29907;BME280;16776;50.958;10.994;2023-06-14T02:05:59;98430.59;;;14.04;79.21
29907;BME280;16776;50.958;10.994;2023-06-14T02:08:26;98434.13;;;14.01;79.36
29907;BME280;16776;50.958;10.994;2023-06-14T02:10:52;98434.34;;;13.97;79.30
29907;BME280;16776;50.958;10.994;2023-06-14T02:13:19;98430.22;;;13.93;79.24
29907;BME280;16776;50.958;10.994;2023-06-14T02:15:47;98433.75;;;13.90;79.30
29907;BME280;16776;50.958;10.994;2023-06-14T02:18:19;98433.75;;;13.90;79.79
29907;BME280;16776;50.958;10.994;2023-06-14T02:20:46;98436.69;;;13.82;79.46
29907;BME280;16776;50.958;10.994;2023-06-14T02:23:16;98425.94;;;13.71;79.69
29907;BME280;16776;50.958;10.994;2023-06-14T02:25:43;98449.13;;;13.74;79.81
29907;BME280;16776;50.958;10.994;2023-06-14T02:28:10;98449.25;;;13.71;79.85
29907;BME280;16776;50.958;10.994;2023-06-14T02:30:37;98428.22;;;13.59;79.69
29907;BME280;16776;50.958;10.994;2023-06-14T02:33:05;98441.69;;;13.67;79.85
29907;BME280;16776;50.958;10.994;2023-06-14T02:35:32;98443.69;;;13.60;80.11
29907;BME280;16776;50.958;10.994;2023-06-14T02:38:02;98442.91;;;13.58;79.86
29907;BME280;16776;50.958;10.994;2023-06-14T02:40:29;98446.50;;;13.54;80.45
29907;BME280;16776;50.958;10.994;2023-06-14T02:42:56;98445.75;;;13.51;80.45
29907;BME280;16776;50.958;10.994;2023-06-14T02:45:22;98444.22;;;13.47;80.39
29907;BME280;16776;50.958;10.994;2023-06-14T02:47:49;98445.25;;;13.42;80.54
29907;BME280;16776;50.958;10.994;2023-06-14T02:50:17;98443.53;;;13.43;80.45
29907;BME280;16776;50.958;10.994;2023-06-14T02:52:43;98446.41;;;13.35;80.42
29907;BME280;16776;50.958;10.994;2023-06-14T02:55:10;98450.84;;;13.32;80.36
29907;BME280;16776;50.958;10.994;2023-06-14T02:57:37;98450.16;;;13.28;80.33
29907;BME280;16776;50.958;10.994;2023-06-14T03:00:05;98448.53;;;13.26;80.70
29907;BME280;16776;50.958;10.994;2023-06-14T03:02:34;98448.72;;;13.21;81.05
29907;BME280;16776;50.958;10.994;2023-06-14T03:05:01;98458.34;;;13.18;80.90
29907;BME280;16776;50.958;10.994;2023-06-14T03:07:30;98462.69;;;13.17;80.36
29907;BME280;16776;50.958;10.994;2023-06-14T03:09:56;98455.22;;;13.10;81.05
29907;BME280;16776;50.958;10.994;2023-06-14T03:12:23;98457.06;;;13.06;81.12
29907;BME280;16776;50.958;10.994;2023-06-14T03:14:52;98459.78;;;13.03;81.00
29907;BME280;16776;50.958;10.994;2023-06-14T03:17:27;98459.91;;;13.00;81.41
29907;BME280;16776;50.958;10.994;2023-06-14T03:19:55;98465.19;;;12.97;81.16
29907;BME280;16776;50.958;10.994;2023-06-14T03:22:21;98471.31;;;12.94;81.41
29907;BME280;16776;50.958;10.994;2023-06-14T03:24:49;98476.50;;;12.94;81.50
29907;BME280;16776;50.958;10.994;2023-06-14T03:27:17;98468.38;;;12.82;81.41
29907;BME280;16776;50.958;10.994;2023-06-14T03:29:44;98476.72;;;12.88;81.93
29907;BME280;16776;50.958;10.994;2023-06-14T03:32:13;98486.13;;;12.91;81.64
29907;BME280;16776;50.958;10.994;2023-06-14T03:34:40;98480.34;;;12.84;82.01
29907;BME280;16776;50.958;10.994;2023-06-14T03:37:07;98485.50;;;12.84;82.01
29907;BME280;16776;50.958;10.994;2023-06-14T03:39:35;98475.28;;;12.81;81.98
29907;BME280;16776;50.958;10.994;2023-06-14T03:42:05;98485.50;;;12.84;81.94
29907;BME280;16776;50.958;10.994;2023-06-14T03:44:32;98491.69;;;12.80;82.09
29907;BME280;16776;50.958;10.994;2023-06-14T03:46:58;98496.94;;;12.79;82.40
29907;BME280;16776;50.958;10.994;2023-06-14T03:49:28;98502.94;;;12.79;83.07
29907;BME280;16776;50.958;10.994;2023-06-14T03:51:56;98496.94;;;12.79;82.65
29907;BME280;16776;50.958;10.994;2023-06-14T03:54:23;98506.19;;;12.84;82.68
29907;BME280;16776;50.958;10.994;2023-06-14T03:56:49;98498.31;;;12.87;84.08
29907;BME280;16776;50.958;10.994;2023-06-14T03:59:19;98503.19;;;12.95;83.91
29907;BME280;16776;50.958;10.994;2023-06-14T04:01:46;98515.03;;;13.00;84.52
29907;BME280;16776;50.958;10.994;2023-06-14T04:04:13;98510.41;;;13.09;84.38
29907;BME280;16776;50.958;10.994;2023-06-14T04:06:41;98515.94;;;13.21;85.44
29907;BME280;16776;50.958;10.994;2023-06-14T04:09:08;98517.94;;;13.36;86.16
29907;BME280;16776;50.958;10.994;2023-06-14T04:11:34;98515.34;;;13.58;86.58
29907;BME280;16776;50.958;10.994;2023-06-14T04:14:02;98518.56;;;13.85;86.28
29907;BME280;16776;50.958;10.994;2023-06-14T04:16:30;98515.50;;;14.16;86.09
29907;BME280;16776;50.958;10.994;2023-06-14T04:18:58;98517.75;;;14.44;86.06
29907;BME280;16776;50.958;10.994;2023-06-14T04:21:25;98523.38;;;14.72;85.81
29907;BME280;16776;50.958;10.994;2023-06-14T04:23:53;98516.81;;;15.02;85.75
29907;BME280;16776;50.958;10.994;2023-06-14T04:26:21;98523.22;;;15.31;85.56
29907;BME280;16776;50.958;10.994;2023-06-14T04:28:49;98529.78;;;15.57;85.54
29907;BME280;16776;50.958;10.994;2023-06-14T04:31:16;98531.09;;;15.83;85.28
29907;BME280;16776;50.958;10.994;2023-06-14T04:33:44;98536.69;;;16.10;84.92
29907;BME280;16776;50.958;10.994;2023-06-14T04:36:12;98536.44;;;16.32;84.90
29907;BME280;16776;50.958;10.994;2023-06-14T04:38:43;98525.34;;;16.45;84.45
29907;BME280;16776;50.958;10.994;2023-06-14T04:41:10;98542.00;;;16.74;84.33
29907;BME280;16776;50.958;10.994;2023-06-14T04:43:38;98542.03;;;16.90;83.39
29907;BME280;16776;50.958;10.994;2023-06-14T04:46:05;98534.69;;;16.98;83.11
29907;BME280;16776;50.958;10.994;2023-06-14T04:48:35;98535.53;;;16.98;82.63
29907;BME280;16776;50.958;10.994;2023-06-14T04:51:03;98538.19;;;16.97;82.36
29907;BME280;16776;50.958;10.994;2023-06-14T04:53:30;98542.88;;;16.90;81.96
29907;BME280;16776;50.958;10.994;2023-06-14T04:55:56;98542.53;;;16.81;82.03
29907;BME280;16776;50.958;10.994;2023-06-14T04:58:25;98545.78;;;16.69;81.99
29907;BME280;16776;50.958;10.994;2023-06-14T05:00:52;98546.50;;;16.55;82.01
29907;BME280;16776;50.958;10.994;2023-06-14T05:03:18;98545.38;;;16.43;81.83
29907;BME280;16776;50.958;10.994;2023-06-14T05:05:46;98545.09;;;16.32;82.04
29907;BME280;16776;50.958;10.994;2023-06-14T05:08:21;98544.72;;;16.23;82.07
29907;BME280;16776;50.958;10.994;2023-06-14T05:10:49;98545.25;;;16.12;82.14
29907;BME280;16776;50.958;10.994;2023-06-14T05:13:16;98543.94;;;16.03;82.50
29907;BME280;16776;50.958;10.994;2023-06-14T05:15:42;98550.38;;;15.96;82.61
29907;BME280;16776;50.958;10.994;2023-06-14T05:18:09;98550.59;;;15.92;82.78
29907;BME280;16776;50.958;10.994;2023-06-14T05:20:36;98543.78;;;15.89;83.54
29907;BME280;16776;50.958;10.994;2023-06-14T05:23:03;98553.19;;;15.92;83.18
29907;BME280;16776;50.958;10.994;2023-06-14T05:25:31;98553.63;;;16.00;83.45
29907;BME280;16776;50.958;10.994;2023-06-14T05:31:19;98550.50;;;16.10;83.39
29907;BME280;16776;50.958;10.994;2023-06-14T05:33:45;98550.06;;;16.19;83.24
29907;BME280;16776;50.958;10.994;2023-06-14T05:36:12;98550.69;;;16.25;83.33
29907;BME280;16776;50.958;10.994;2023-06-14T05:38:38;98547.94;;;16.28;83.24
29907;BME280;16776;50.958;10.994;2023-06-14T05:41:06;98547.78;;;16.31;83.47
29907;BME280;16776;50.958;10.994;2023-06-14T05:43:33;98555.47;;;16.32;83.28
29907;BME280;16776;50.958;10.994;2023-06-14T05:46:02;98556.78;;;16.41;83.84
29907;BME280;16776;50.958;10.994;2023-06-14T05:48:30;98560.66;;;16.49;83.95
29907;BME280;16776;50.958;10.994;2023-06-14T05:50:57;98563.63;;;16.59;83.93
29907;BME280;16776;50.958;10.994;2023-06-14T05:53:23;98559.63;;;16.69;83.69
29907;BME280;16776;50.958;10.994;2023-06-14T05:55:50;98569.53;;;16.78;83.84
29907;BME280;16776;50.958;10.994;2023-06-14T05:58:18;98571.66;;;16.87;83.53
29907;BME280;16776;50.958;10.994;2023-06-14T06:00:45;98576.53;;;16.93;83.33
29907;BME280;16776;50.958;10.994;2023-06-14T06:03:11;98579.69;;;17.00;83.53
29907;BME280;16776;50.958;10.994;2023-06-14T06:05:38;98571.34;;;17.09;83.95
29907;BME280;16776;50.958;10.994;2023-06-14T06:08:05;98569.13;;;17.19;83.88
29907;BME280;16776;50.958;10.994;2023-06-14T06:10:32;98569.53;;;17.27;83.96
29907;BME280;16776;50.958;10.994;2023-06-14T06:12:58;98568.09;;;17.37;84.34
29907;BME280;16776;50.958;10.994;2023-06-14T06:15:26;98569.94;;;17.51;83.60
29907;BME280;16776;50.958;10.994;2023-06-14T06:17:53;98566.00;;;17.59;83.69
29907;BME280;16776;50.958;10.994;2023-06-14T06:20:21;98561.00;;;17.70;83.66
29907;BME280;16776;50.958;10.994;2023-06-14T06:22:52;98570.84;;;17.81;83.39
29907;BME280;16776;50.958;10.994;2023-06-14T06:25:19;98566.78;;;17.91;83.51
29907;BME280;16776;50.958;10.994;2023-06-14T06:27:47;98568.94;;;17.99;83.48
29907;BME280;16776;50.958;10.994;2023-06-14T06:30:14;98572.88;;;18.06;83.82
29907;BME280;16776;50.958;10.994;2023-06-14T06:32:42;98572.16;;;18.18;83.27
29907;BME280;16776;50.958;10.994;2023-06-14T06:35:08;98573.66;;;18.22;83.44
29907;BME280;16776;50.958;10.994;2023-06-14T06:37:38;98569.84;;;18.28;83.71
29907;BME280;16776;50.958;10.994;2023-06-14T06:40:08;98576.31;;;18.36;83.30
29907;BME280;16776;50.958;10.994;2023-06-14T06:42:35;98576.66;;;18.44;83.31
29907;BME280;16776;50.958;10.994;2023-06-14T06:45:08;98581.94;;;18.58;83.29
29907;BME280;16776;50.958;10.994;2023-06-14T06:47:35;98576.72;;;18.58;83.47
29907;BME280;16776;50.958;10.994;2023-06-14T06:50:04;98571.78;;;18.68;83.24
29907;BME280;16776;50.958;10.994;2023-06-14T06:52:31;98579.34;;;18.73;83.67
29907;BME280;16776;50.958;10.994;2023-06-14T06:54:58;98582.31;;;18.81;83.48
29907;BME280;16776;50.958;10.994;2023-06-14T06:57:24;98586.22;;;18.88;83.33
29907;BME280;16776;50.958;10.994;2023-06-14T06:59:51;98586.59;;;18.96;83.44
29907;BME280;16776;50.958;10.994;2023-06-14T07:02:18;98579.13;;;19.04;83.10
29907;BME280;16776;50.958;10.994;2023-06-14T07:04:44;98588.25;;;19.11;83.21
29907;BME280;16776;50.958;10.994;2023-06-14T07:07:17;98593.75;;;19.21;83.46
29907;BME280;16776;50.958;10.994;2023-06-14T07:09:43;98590.88;;;19.25;83.99
29907;BME280;16776;50.958;10.994;2023-06-14T07:12:11;98590.94;;;19.38;83.42
29907;BME280;16776;50.958;10.994;2023-06-14T07:14:37;98591.94;;;19.50;83.21
29907;BME280;16776;50.958;10.994;2023-06-14T07:17:04;98598.25;;;19.60;83.07
29907;BME280;16776;50.958;10.994;2023-06-14T07:19:31;98606.22;;;19.71;83.33
29907;BME280;16776;50.958;10.994;2023-06-14T07:21:58;98604.69;;;19.81;83.86
29907;BME280;16776;50.958;10.994;2023-06-14T07:24:26;98602.16;;;19.94;82.89
29907;BME280;16776;50.958;10.994;2023-06-14T07:26:53;98602.59;;;20.00;83.37
29907;BME280;16776;50.958;10.994;2023-06-14T07:29:21;98607.09;;;20.11;83.78
29907;BME280;16776;50.958;10.994;2023-06-14T07:31:51;98606.19;;;20.25;83.73
29907;BME280;16776;50.958;10.994;2023-06-14T07:34:17;98612.09;;;20.41;83.50
29907;BME280;16776;50.958;10.994;2023-06-14T07:36:44;98616.28;;;20.56;82.91
29907;BME280;16776;50.958;10.994;2023-06-14T07:39:12;98614.53;;;20.69;83.16
29907;BME280;16776;50.958;10.994;2023-06-14T07:41:41;98608.34;;;20.83;83.06
29907;BME280;16776;50.958;10.994;2023-06-14T07:44:07;98617.97;;;20.95;82.23
29907;BME280;16776;50.958;10.994;2023-06-14T07:46:34;98608.56;;;21.05;81.79
29907;BME280;16776;50.958;10.994;2023-06-14T07:49:00;98609.06;;;21.10;82.43
29907;BME280;16776;50.958;10.994;2023-06-14T07:51:30;98608.31;;;21.21;82.40
29907;BME280;16776;50.958;10.994;2023-06-14T07:53:56;98604.94;;;21.19;81.41
29907;BME280;16776;50.958;10.994;2023-06-14T07:56:23;98612.50;;;21.23;81.54
29907;BME280;16776;50.958;10.994;2023-06-14T07:58:51;98622.13;;;21.23;81.01
29907;BME280;16776;50.958;10.994;2023-06-14T08:01:20;98621.72;;;21.16;81.62
29907;BME280;16776;50.958;10.994;2023-06-14T08:03:51;98617.53;;;21.14;81.52
29907;BME280;16776;50.958;10.994;2023-06-14T08:06:18;98620.25;;;21.12;81.31
29907;BME280;16776;50.958;10.994;2023-06-14T08:08:44;98616.09;;;21.10;81.30
29907;BME280;16776;50.958;10.994;2023-06-14T08:11:14;98609.59;;;21.03;81.25
29907;BME280;16776;50.958;10.994;2023-06-14T08:13:42;98614.84;;;21.03;81.14
29907;BME280;16776;50.958;10.994;2023-06-14T08:16:10;98621.00;;;21.02;80.90
29907;BME280;16776;50.958;10.994;2023-06-14T08:18:37;98617.66;;;21.00;81.16
29907;BME280;16776;50.958;10.994;2023-06-14T08:21:03;98616.50;;;21.04;81.41
29907;BME280;16776;50.958;10.994;2023-06-14T08:23:33;98617.53;;;21.14;81.83
29907;BME280;16776;50.958;10.994;2023-06-14T08:26:01;98620.78;;;21.17;80.71
29907;BME280;16776;50.958;10.994;2023-06-14T08:28:29;98618.59;;;21.24;81.50
29907;BME280;16776;50.958;10.994;2023-06-14T08:30:55;98614.81;;;21.28;80.66
29907;BME280;16776;50.958;10.994;2023-06-14T08:33:23;98612.09;;;21.29;80.61
29907;BME280;16776;50.958;10.994;2023-06-14T08:35:50;98612.28;;;21.26;81.29
29907;BME280;16776;50.958;10.994;2023-06-14T08:38:17;98618.28;;;21.28;81.06
29907;BME280;16776;50.958;10.994;2023-06-14T08:40:48;98614.56;;;21.31;80.62
29907;BME280;16776;50.958;10.994;2023-06-14T08:43:16;98611.59;;;21.24;80.41
29907;BME280;16776;50.958;10.994;2023-06-14T08:45:43;98614.22;;;21.24;80.42
29907;BME280;16776;50.958;10.994;2023-06-14T08:48:12;98605.56;;;21.22;80.40
29907;BME280;16776;50.958;10.994;2023-06-14T08:50:45;98613.97;;;21.27;80.47
29907;BME280;16776;50.958;10.994;2023-06-14T08:53:15;98614.81;;;21.28;80.22
29907;BME280;16776;50.958;10.994;2023-06-14T08:55:45;98614.38;;;21.21;79.87
29907;BME280;16776;50.958;10.994;2023-06-14T08:58:15;98616.06;;;21.22;80.28
29907;BME280;16776;50.958;10.994;2023-06-14T09:00:45;98609.69;;;21.26;80.34
29907;BME280;16776;50.958;10.994;2023-06-14T09:03:11;98625.91;;;21.31;80.38
29907;BME280;16776;50.958;10.994;2023-06-14T09:05:39;98614.38;;;21.34;80.33
29907;BME280;16776;50.958;10.994;2023-06-14T09:08:07;98617.91;;;21.46;79.78
29907;BME280;16776;50.958;10.994;2023-06-14T09:10:35;98626.41;;;21.49;79.89
29907;BME280;16776;50.958;10.994;2023-06-14T09:13:02;98623.34;;;21.55;80.20
29907;BME280;16776;50.958;10.994;2023-06-14T09:15:29;98621.94;;;21.62;79.34
29907;BME280;16776;50.958;10.994;2023-06-14T09:17:56;98624.56;;;21.62;78.74
29907;BME280;16776;50.958;10.994;2023-06-14T09:20:23;98619.53;;;21.59;79.27
29907;BME280;16776;50.958;10.994;2023-06-14T09:22:50;98620.91;;;21.52;77.95
29907;BME280;16776;50.958;10.994;2023-06-14T09:25:18;98619.69;;;21.45;78.92
29907;BME280;16776;50.958;10.994;2023-06-14T09:27:46;98624.53;;;21.39;79.54
29907;BME280;16776;50.958;10.994;2023-06-14T09:30:13;98617.72;;;21.36;78.70
29907;BME280;16776;50.958;10.994;2023-06-14T09:32:40;98631.13;;;21.31;78.51
29907;BME280;16776;50.958;10.994;2023-06-14T09:35:07;98639.22;;;21.28;78.59
29907;BME280;16776;50.958;10.994;2023-06-14T09:37:35;98633.34;;;21.25;78.36
29907;BME280;16776;50.958;10.994;2023-06-14T09:40:04;98625.59;;;21.23;78.28
29907;BME280;16776;50.958;10.994;2023-06-14T09:42:36;98628.31;;;21.22;78.34
29907;BME280;16776;50.958;10.994;2023-06-14T09:45:04;98629.25;;;21.21;78.30
29907;BME280;16776;50.958;10.994;2023-06-14T09:47:33;98631.25;;;21.17;78.75
29907;BME280;16776;50.958;10.994;2023-06-14T09:49:59;98636.81;;;21.13;78.87
29907;BME280;16776;50.958;10.994;2023-06-14T09:52:27;98623.19;;;21.08;78.51
29907;BME280;16776;50.958;10.994;2023-06-14T09:54:57;98629.88;;;21.12;78.77
29907;BME280;16776;50.958;10.994;2023-06-14T09:57:26;98628.84;;;21.14;78.92
29907;BME280;16776;50.958;10.994;2023-06-14T09:59:57;98635.88;;;21.26;79.17
29907;BME280;16776;50.958;10.994;2023-06-14T10:02:28;98630.28;;;21.31;79.22
29907;BME280;16776;50.958;10.994;2023-06-14T10:05:01;98636.56;;;21.41;79.31
29907;BME280;16776;50.958;10.994;2023-06-14T10:07:36;98616.63;;;21.51;79.37
29907;BME280;16776;50.958;10.994;2023-06-14T10:10:06;98631.25;;;21.66;79.32
29907;BME280;16776;50.958;10.994;2023-06-14T10:12:33;98626.41;;;21.73;78.86
29907;BME280;16776;50.958;10.994;2023-06-14T10:15:02;98620.25;;;21.85;80.12
29907;BME280;16776;50.958;10.994;2023-06-14T10:17:34;98624.19;;;22.03;79.24
29907;BME280;16776;50.958;10.994;2023-06-14T10:20:14;98617.34;;;22.13;78.46
29907;BME280;16776;50.958;10.994;2023-06-14T10:22:49;98626.03;;;22.14;78.40
29907;BME280;16776;50.958;10.994;2023-06-14T10:25:26;98626.16;;;22.12;78.24
29907;BME280;16776;50.958;10.994;2023-06-14T10:28:02;98625.75;;;22.06;77.97
29907;BME280;16776;50.958;10.994;2023-06-14T10:30:30;98631.56;;;21.98;77.98
29907;BME280;16776;50.958;10.994;2023-06-14T10:33:04;98632.31;;;22.00;77.44
29907;BME280;16776;50.958;10.994;2023-06-14T10:35:31;98622.88;;;21.85;77.56
29907;BME280;16776;50.958;10.994;2023-06-14T10:38:06;98626.13;;;21.89;77.67
29907;BME280;16776;50.958;10.994;2023-06-14T10:40:36;98626.25;;;21.87;78.06
29907;BME280;16776;50.958;10.994;2023-06-14T10:43:23;98629.28;;;21.94;77.55
29907;BME280;16776;50.958;10.994;2023-06-14T10:46:14;98623.19;;;21.93;77.54
29907;BME280;16776;50.958;10.994;2023-06-14T10:48:42;98625.97;;;21.79;77.33
29907;BME280;16776;50.958;10.994;2023-06-14T10:51:15;98615.97;;;21.84;77.54
29907;BME280;16776;50.958;10.994;2023-06-14T10:53:45;98616.88;;;21.72;77.24
29907;BME280;16776;50.958;10.994;2023-06-14T10:56:23;98616.66;;;21.75;77.37
29907;BME280;16776;50.958;10.994;2023-06-14T10:58:51;98612.50;;;21.60;76.92
29907;BME280;16776;50.958;10.994;2023-06-14T11:01:29;98610.28;;;21.66;76.95
29907;BME280;16776;50.958;10.994;2023-06-14T11:04:06;98606.72;;;21.67;77.53
29907;BME280;16776;50.958;10.994;2023-06-14T11:06:45;98609.63;;;21.76;77.66
29907;BME280;16776;50.958;10.994;2023-06-14T11:12:27;98613.69;;;21.80;77.41
29907;BME280;16776;50.958;10.994;2023-06-14T11:14:54;98603.94;;;21.82;77.44
29907;BME280;16776;50.958;10.994;2023-06-14T11:17:22;98595.50;;;21.89;76.90
29907;BME280;16776;50.958;10.994;2023-06-14T11:19:49;98599.09;;;21.88;76.88
29907;BME280;16776;50.958;10.994;2023-06-14T11:22:16;98596.56;;;21.87;77.22
29907;BME280;16776;50.958;10.994;2023-06-14T11:24:43;98598.03;;;21.91;76.71
29907;BME280;16776;50.958;10.994;2023-06-14T11:27:10;98595.91;;;21.96;76.16
29907;BME280;16776;50.958;10.994;2023-06-14T11:29:36;98590.66;;;21.96;76.04
29907;BME280;16776;50.958;10.994;2023-06-14T11:32:06;98585.94;;;22.01;76.42
29907;BME280;16776;50.958;10.994;2023-06-14T11:34:38;98585.69;;;22.04;76.09
29907;BME280;16776;50.958;10.994;2023-06-14T11:37:05;98580.09;;;22.08;76.19
29907;BME280;16776;50.958;10.994;2023-06-14T11:39:34;98584.88;;;22.14;76.12
29907;BME280;16776;50.958;10.994;2023-06-14T11:42:01;98576.44;;;22.22;75.60
29907;BME280;16776;50.958;10.994;2023-06-14T11:44:28;98576.69;;;22.30;75.99
29907;BME280;16776;50.958;10.994;2023-06-14T11:46:55;98578.66;;;22.39;75.43
29907;BME280;16776;50.958;10.994;2023-06-14T11:49:23;98579.81;;;22.46;75.63
29907;BME280;16776;50.958;10.994;2023-06-14T11:51:53;98573.69;;;22.59;76.11
29907;BME280;16776;50.958;10.994;2023-06-14T11:54:19;98578.56;;;22.63;75.12
29907;BME280;16776;50.958;10.994;2023-06-14T11:56:46;98579.63;;;22.72;75.79
29907;BME280;16776;50.958;10.994;2023-06-14T11:59:13;98574.41;;;22.83;76.10
29907;BME280;16776;50.958;10.994;2023-06-14T12:01:42;98566.75;;;22.91;75.14
29907;BME280;16776;50.958;10.994;2023-06-14T12:04:11;98577.59;;;22.98;74.73
29907;BME280;16776;50.958;10.994;2023-06-14T12:06:37;98575.13;;;22.96;74.37
29907;BME280;16776;50.958;10.994;2023-06-14T12:09:08;98583.00;;;22.96;75.11
29907;BME280;16776;50.958;10.994;2023-06-14T12:11:38;98576.44;;;22.90;74.68
29907;BME280;16776;50.958;10.994;2023-06-14T12:14:05;98583.50;;;22.90;75.14
29907;BME280;16776;50.958;10.994;2023-06-14T12:16:33;98572.00;;;22.91;75.11
29907;BME280;16776;50.958;10.994;2023-06-14T12:19:09;98579.44;;;22.97;74.86
29907;BME280;16776;50.958;10.994;2023-06-14T12:21:37;98574.53;;;22.81;74.64
29907;BME280;16776;50.958;10.994;2023-06-14T12:24:07;98568.19;;;22.73;74.55
29907;BME280;16776;50.958;10.994;2023-06-14T12:26:37;98565.22;;;22.77;74.14
29907;BME280;16776;50.958;10.994;2023-06-14T12:29:05;98567.97;;;22.65;74.57
29907;BME280;16776;50.958;10.994;2023-06-14T12:31:31;98563.19;;;22.59;74.65
29907;BME280;16776;50.958;10.994;2023-06-14T12:33:58;98570.69;;;22.52;74.03
29907;BME280;16776;50.958;10.994;2023-06-14T12:36:25;98574.56;;;22.46;74.20
29907;BME280;16776;50.958;10.994;2023-06-14T12:38:52;98576.03;;;22.39;74.56
29907;BME280;16776;50.958;10.994;2023-06-14T12:41:21;98570.03;;;22.37;74.83
29907;BME280;16776;50.958;10.994;2023-06-14T12:43:48;98564.53;;;22.29;74.63
29907;BME280;16776;50.958;10.994;2023-06-14T12:46:14;98573.63;;;22.36;75.00
29907;BME280;16776;50.958;10.994;2023-06-14T12:48:41;98569.69;;;22.42;75.28
29907;BME280;16776;50.958;10.994;2023-06-14T12:51:07;98570.88;;;22.49;75.13
29907;BME280;16776;50.958;10.994;2023-06-14T12:53:34;98563.06;;;22.60;75.34
29907;BME280;16776;50.958;10.994;2023-06-14T12:56:00;98575.47;;;22.69;75.43
29907;BME280;16776;50.958;10.994;2023-06-14T12:58:29;98587.75;;;22.80;74.86
29907;BME280;16776;50.958;10.994;2023-06-14T13:00:55;98569.38;;;22.80;74.75
29907;BME280;16776;50.958;10.994;2023-06-14T13:03:22;98574.53;;;22.81;74.70